Bookmark and Share
Track history (hours):
 

James Turecamo

More information available from US FCC via Universal Licensing System and Coast Guard Vessel Documentation Center.

Last reported at 2014-Apr-16 12:03 UTC. Time now 2014-Apr-16 16:08 UTC.
Position N 40°38' W 074°08'.

Length 27 m; draft 4.5 m.

Type: Tug. MMSI: 367073380.

NotesDate/timePositionNaut miles runAvg speedWind from/ knotsBaromVisibWave heightAir tempDewpointWater temp
2014-Apr-16 12:03N 40°38' W 074°08'0 0.0
2014-Apr-16 11:33N 40°38' W 074°08'0 0.0
2014-Apr-16 10:34N 40°38' W 074°08'0 0.0
2014-Apr-16 09:34N 40°38' W 074°08'0 0.0
2014-Apr-16 08:33N 40°38' W 074°08'0 0.0
2014-Apr-16 07:33N 40°38' W 074°08'0 0.0
2014-Apr-16 06:34N 40°38' W 074°08'0 0.0
2014-Apr-16 05:33N 40°38' W 074°08'0 0.0
2014-Apr-16 04:34N 40°38' W 074°08'0 0.0
2014-Apr-16 03:33N 40°38' W 074°08'0 0.0
2014-Apr-16 02:34N 40°38' W 074°08'0 0.0
2014-Apr-16 01:34N 40°38' W 074°08'0 0.0
2014-Apr-16 00:34N 40°38' W 074°08'0 0.0
2014-Apr-15 23:34N 40°38' W 074°08'0 0.0
2014-Apr-15 22:34N 40°38' W 074°08'0 0.0
2014-Apr-15 21:34N 40°38' W 074°08'0 0.0
2014-Apr-15 20:33N 40°38' W 074°08'0 0.1
2014-Apr-15 19:33N 40°38' W 074°08'0 0.1
2014-Apr-15 18:33N 40°38' W 074°08'0 0.0
2014-Apr-15 17:33N 40°38' W 074°08'0 0.0
2014-Apr-15 16:34N 40°38' W 074°08'0 0.0
2014-Apr-15 15:33N 40°38' W 074°08'1 0.6
2014-Apr-15 14:33N 40°39' W 074°09'5 2.3
2014-Apr-15 12:32N 40°35' W 074°13'5 2.5
2014-Apr-15 10:34N 40°38' W 074°08'0 0.0
2014-Apr-15 09:34N 40°38' W 074°08'0 0.0
2014-Apr-15 08:34N 40°38' W 074°08'0 0.0
2014-Apr-15 06:34N 40°38' W 074°08'0 0.0
2014-Apr-15 05:34N 40°38' W 074°08'0 0.0
2014-Apr-15 03:34N 40°38' W 074°08'0 0.0
2014-Apr-15 02:34N 40°38' W 074°08'0 0.0
2014-Apr-15 01:34N 40°38' W 074°08'0 0.0
2014-Apr-15 00:33N 40°38' W 074°08'0 0.0
2014-Apr-14 23:33N 40°38' W 074°08'0 0.0
2014-Apr-14 22:32N 40°38' W 074°08'2 2.4
2014-Apr-14 21:34N 40°39' W 074°05'2 2.3
2014-Apr-14 20:33N 40°38' W 074°08'0 0.0
2014-Apr-14 19:33N 40°38' W 074°08'0 0.0
2014-Apr-14 16:30N 40°38' W 074°08'0 0.0
2014-Apr-14 14:32N 40°38' W 074°08'0 0.0
2014-Apr-14 13:32N 40°38' W 074°08'2 1.3
2014-Apr-14 11:34N 40°41' W 074°09'1 1.0
2014-Apr-14 10:33N 40°40' W 074°08'2 1.6
2014-Apr-14 09:33N 40°38' W 074°08'0 0.0
2014-Apr-14 08:33N 40°38' W 074°08'0 0.0
2014-Apr-14 07:33N 40°38' W 074°08'0 0.0
2014-Apr-14 06:34N 40°38' W 074°08'0 0.0
2014-Apr-14 05:33N 40°38' W 074°08'0 0.0
2014-Apr-13 22:33N 40°38' W 074°08'0 0.0
2014-Apr-13 21:33N 40°38' W 074°08'0 0.0
2014-Apr-13 20:34N 40°38' W 074°08'0 0.0
2014-Apr-13 19:34N 40°38' W 074°08'0 0.0
2014-Apr-13 18:34N 40°38' W 074°08'0 0.0
2014-Apr-13 16:10N 40°38' W 074°08'0 0.0
2014-Apr-13 15:32N 40°38' W 074°08'4 0.9
2014-Apr-13 11:29N 40°37' W 074°12'5 5.1
2014-Apr-13 10:33N 40°41' W 074°09'0 0.2
2014-Apr-13 09:31N 40°41' W 074°09'3 3.1
2014-Apr-13 08:33N 40°38' W 074°08'0 0.0
2014-Apr-13 07:34N 40°38' W 074°08'0 0.0
2014-Apr-13 06:33N 40°38' W 074°08'0 0.0
2014-Apr-13 05:33N 40°38' W 074°08'0 0.0
2014-Apr-13 04:33N 40°38' W 074°08'0 0.0
2014-Apr-13 03:33N 40°38' W 074°08'0 0.0
2014-Apr-13 02:33N 40°38' W 074°08'0 0.0
2014-Apr-13 01:33N 40°38' W 074°08'1 1.0
2014-Apr-13 00:33N 40°39' W 074°07'0 0.0
2014-Apr-12 23:23N 40°39' W 074°07'0 0.0
2014-Apr-12 22:34N 40°39' W 074°07'1 1.0
2014-Apr-12 21:33N 40°38' W 074°08'0 0.0
2014-Apr-12 20:33N 40°38' W 074°08'0 0.0
2014-Apr-12 19:34N 40°38' W 074°08'0 0.0
2014-Apr-12 18:33N 40°38' W 074°08'1 1.4
2014-Apr-12 17:33N 40°39' W 074°06'1 1.1
2014-Apr-12 16:14N 40°38' W 074°08'0 0.0
2014-Apr-12 15:18N 40°38' W 074°08'0 0.0
2014-Apr-12 14:32N 40°38' W 074°08'0 0.0
2014-Apr-12 12:25N 40°38' W 074°08'2 2.3
2014-Apr-12 11:34N 40°40' W 074°08'1 1.2
2014-Apr-12 10:33N 40°42' W 074°08'0 0.2
2014-Apr-12 09:33N 40°41' W 074°08'3 3.0
2014-Apr-12 08:34N 40°38' W 074°08'0 0.0
2014-Apr-12 07:33N 40°38' W 074°08'0 0.0
2014-Apr-12 06:33N 40°38' W 074°08'0 0.0
2014-Apr-12 05:33N 40°38' W 074°08'0 0.0
2014-Apr-12 04:33N 40°38' W 074°08'0 0.0
2014-Apr-12 03:33N 40°38' W 074°08'0 0.0
2014-Apr-12 02:33N 40°38' W 074°08'0 0.0
2014-Apr-12 01:34N 40°38' W 074°08'0 0.0
2014-Apr-12 00:33N 40°38' W 074°08'0 0.0
2014-Apr-11 23:33N 40°38' W 074°08'0 0.0
2014-Apr-11 22:33N 40°38' W 074°08'0 0.0
2014-Apr-11 21:33N 40°38' W 074°08'0 0.0
2014-Apr-11 20:33N 40°38' W 074°08'0 0.0
2014-Apr-11 19:33N 40°38' W 074°08'0 0.0
2014-Apr-11 18:33N 40°38' W 074°08'0 0.0
2014-Apr-11 17:32N 40°38' W 074°08'0 0.0
2014-Apr-11 16:33N 40°38' W 074°08'2 1.8
2014-Apr-11 15:33N 40°40' W 074°08'1 0.7
2014-Apr-11 13:33N 40°39' W 074°09'1 1.0
2014-Apr-11 12:34N 40°38' W 074°08'2 1.6
2014-Apr-11 11:33N 40°39' W 074°06'0 0.1
2014-Apr-11 10:33N 40°39' W 074°06'0 0.4
2014-Apr-11 09:34N 40°39' W 074°06'1 1.3
2014-Apr-11 08:33N 40°38' W 074°08'0 0.0
2014-Apr-11 07:33N 40°38' W 074°08'0 0.0
2014-Apr-11 06:33N 40°38' W 074°08'0 0.0
2014-Apr-11 05:34N 40°38' W 074°08'0 0.0
2014-Apr-11 04:33N 40°38' W 074°08'0 0.0
2014-Apr-11 03:33N 40°38' W 074°08'0 0.0
2014-Apr-11 02:32N 40°38' W 074°08'0 0.0
2014-Apr-11 01:33N 40°38' W 074°08'0 0.0
2014-Apr-11 00:33N 40°38' W 074°08'0 0.0
2014-Apr-10 23:33N 40°38' W 074°08'1 1.1
2014-Apr-10 22:32N 40°39' W 074°09'6 2.0
2014-Apr-10 19:20N 40°33' W 074°14'0 0.1
2014-Apr-10 18:32N 40°34' W 074°14'4 3.8
2014-Apr-10 17:23N 40°38' W 074°12'3 3.9
2014-Apr-10 16:30N 40°38' W 074°08'0 0.0
2014-Apr-10 15:28N 40°38' W 074°08'0 0.0
2014-Apr-10 14:30N 40°38' W 074°08'0 0.0
2014-Apr-10 13:33N 40°38' W 074°08'0 0.0
2014-Apr-10 12:33N 40°38' W 074°08'0 0.0
2014-Apr-10 11:09N 40°38' W 074°08'0 0.0
2014-Apr-10 10:19N 40°38' W 074°08'0 0.0
2014-Apr-10 09:10N 40°38' W 074°08'2 1.1
2014-Apr-10 07:33N 40°39' W 074°06'1 1.1
2014-Apr-10 06:33N 40°39' W 074°07'0 0.0
2014-Apr-10 05:33N 40°39' W 074°07'1 0.7
2014-Apr-10 04:33N 40°38' W 074°08'0 0.0
2014-Apr-10 03:33N 40°38' W 074°08'10 3.1
2014-Apr-10 00:12N 40°48' W 074°03'4 3.7
2014-Apr-09 23:11N 40°45' W 074°05'1 1.1
2014-Apr-09 22:26N 40°44' W 074°06'2 2.0
2014-Apr-09 21:30N 40°43' W 074°07'2 2.2
2014-Apr-09 20:33N 40°41' W 074°08'2 2.3
2014-Apr-09 19:32N 40°38' W 074°08'0 0.3
2014-Apr-09 18:33N 40°39' W 074°07'0 0.3
2014-Apr-09 17:33N 40°38' W 074°08'0 0.0
2014-Apr-09 16:33N 40°38' W 074°08'0 0.0
2014-Apr-09 15:32N 40°38' W 074°08'0 0.0
2014-Apr-09 14:31N 40°38' W 074°08'2 2.0
2014-Apr-09 13:33N 40°39' W 074°05'2 1.8
2014-Apr-09 12:33N 40°38' W 074°08'0 0.0
2014-Apr-09 11:33N 40°38' W 074°08'0 0.0
2014-Apr-09 10:33N 40°38' W 074°08'2 1.8
2014-Apr-09 09:33N 40°39' W 074°06'0 0.4
2014-Apr-09 08:33N 40°39' W 074°05'2 0.9
2014-Apr-09 06:15N 40°38' W 074°08'0 0.0
2014-Apr-09 05:33N 40°38' W 074°08'0 0.0
2014-Apr-09 04:07N 40°38' W 074°08'3 5.3
2014-Apr-09 03:33N 40°38' W 074°04'4 4.0
2014-Apr-09 02:33N 40°40' W 074°08'0 0.3
2014-Apr-09 01:33N 40°40' W 074°08'1 1.3
2014-Apr-09 00:25N 40°38' W 074°08'0 0.0
2014-Apr-08 23:33N 40°38' W 074°08'1 1.4
2014-Apr-08 22:34N 40°39' W 074°06'0 0.2
2014-Apr-08 21:33N 40°39' W 074°06'2 1.0
2014-Apr-08 19:33N 40°40' W 074°08'3 1.6
2014-Apr-08 17:31N 40°44' W 074°07'5 5.5
2014-Apr-08 16:33N 40°38' W 074°08'0 0.0
2014-Apr-08 15:33N 40°38' W 074°08'0 0.0
2014-Apr-08 14:33N 40°38' W 074°08'0 0.0
2014-Apr-08 13:33N 40°38' W 074°08'0 0.0
2014-Apr-08 12:33N 40°38' W 074°08'0 0.0
2014-Apr-08 11:33N 40°38' W 074°08'0 0.0
2014-Apr-08 10:33N 40°38' W 074°08'0 0.0
2014-Apr-08 09:33N 40°38' W 074°08'0 0.0
2014-Apr-08 08:33N 40°38' W 074°08'4 3.5
2014-Apr-08 07:32N 40°42' W 074°07'1 0.5
2014-Apr-08 06:32N 40°43' W 074°07'4 4.2
2014-Apr-08 05:33N 40°38' W 074°08'0 0.0
2014-Apr-08 04:33N 40°38' W 074°08'0 0.0
2014-Apr-08 03:33N 40°38' W 074°08'0 0.0
2014-Apr-08 02:33N 40°38' W 074°08'0 0.1
2014-Apr-08 01:33N 40°39' W 074°08'1 1.2
2014-Apr-08 00:33N 40°39' W 074°06'1 1.3
2014-Apr-07 23:33N 40°38' W 074°08'0 0.0
2014-Apr-07 22:33N 40°38' W 074°08'0 0.0
2014-Apr-07 21:33N 40°38' W 074°08'0 0.0
2014-Apr-07 20:18N 40°38' W 074°08'0 0.0
2014-Apr-07 19:33N 40°38' W 074°08'0 0.0
2014-Apr-07 17:33N 40°38' W 074°08'0 0.0
2014-Apr-07 16:31N 40°38' W 074°08'0 0.0
2014-Apr-07 15:33N 40°38' W 074°08'3 2.5
2014-Apr-07 14:26N 40°41' W 074°08'3 3.2
2014-Apr-07 13:33N 40°39' W 074°08'2 2.1
2014-Apr-07 12:33N 40°39' W 074°06'6 5.4
2014-Apr-07 11:32N 40°36' W 074°12'1 0.2
2014-Apr-07 08:24N 40°36' W 074°12'5 6.3
2014-Apr-07 07:32N 40°31' W 074°15'0 0.3
2014-Apr-07 06:18N 40°31' W 074°15'9 5.1
2014-Apr-07 04:33N 40°39' W 074°10'1 1.5
2014-Apr-07 03:34N 40°38' W 074°08'0 0.0
2014-Apr-07 02:33N 40°38' W 074°08'1 0.8
2014-Apr-07 01:33N 40°39' W 074°07'2 2.2
2014-Apr-07 00:33N 40°39' W 074°04'2 1.6
2014-Apr-06 23:33N 40°39' W 074°06'1 1.5
2014-Apr-06 22:33N 40°38' W 074°08'0 0.0
2014-Apr-06 21:33N 40°38' W 074°08'3 3.0
2014-Apr-06 20:31N 40°38' W 074°12'5 5.4
2014-Apr-06 19:33N 40°39' W 074°05'2 1.6
2014-Apr-06 18:33N 40°39' W 074°07'1 0.5
2014-Apr-06 17:33N 40°38' W 074°08'0 0.0
2014-Apr-06 16:33N 40°38' W 074°08'0 0.0
2014-Apr-06 15:25N 40°38' W 074°08'0 0.0
2014-Apr-06 14:24N 40°38' W 074°08'0 0.0
2014-Apr-06 13:33N 40°38' W 074°08'0 0.0
2014-Apr-06 12:33N 40°38' W 074°08'  

Dump ship's entire track history

sailing weather and tide predictions

James Turecamo — WDC7565 — position and weather